Time;durP1;ratioP1;P1;durP2;ratioP2;P2;SDS_P1;SDS_P2;PMS_P1;PMS_P2;Temp;Humidity;BMP_temperature;BMP_pressure;BME280_temperature;BME280_humidity;BME280_pressure;Samples;Min_cycle;Max_cycle;Signal;HPM_P1;HPM_P2
2023/12/24 00:00:42;;;;;;;1.33;1.20;;;;;;;6.63;100.00;97182.78;5014682;28;20432;-83
2023/12/24 00:03:08;;;;;;;1.48;1.25;;;;;;;6.60;100.00;97187.50;5014548;28;20405;-82
2023/12/24 00:05:34;;;;;;;1.30;1.20;;;;;;;6.59;100.00;97199.06;5013417;28;20434;-83
2023/12/24 00:08:00;;;;;;;1.48;1.38;;;;;;;6.51;100.00;97206.47;5011921;28;20412;-81
2023/12/24 00:10:26;;;;;;;1.70;1.50;;;;;;;6.51;100.00;97204.66;5016733;28;20401;-80
2023/12/24 00:12:52;;;;;;;2.60;1.50;;;;;;;6.48;100.00;97196.41;5019327;28;20400;-82
2023/12/24 00:15:21;;;;;;;1.75;1.40;;;;;;;6.50;100.00;97182.00;5032724;28;20398;-82
2023/12/24 00:17:47;;;;;;;2.03;1.20;;;;;;;6.49;100.00;97200.66;5035927;28;20896;-83
2023/12/24 00:20:13;;;;;;;1.58;1.33;;;;;;;6.46;100.00;97180.09;5030629;28;20396;-83
2023/12/24 00:22:39;;;;;;;3.25;1.40;;;;;;;6.43;100.00;97198.94;5027437;28;20395;-87
2023/12/24 00:25:06;;;;;;;1.30;1.20;;;;;;;6.44;100.00;97188.19;5038872;28;20403;-83
2023/12/24 00:27:32;;;;;;;1.10;1.10;;;;;;;6.45;100.00;97192.44;5024192;28;20416;-84
2023/12/24 00:29:59;;;;;;;1.90;1.30;;;;;;;6.42;100.00;97169.22;5035085;28;20428;-83
2023/12/24 00:32:26;;;;;;;1.40;1.30;;;;;;;6.46;100.00;97177.47;5052174;28;20403;-85
2023/12/24 00:34:52;;;;;;;3.10;1.20;;;;;;;6.42;100.00;97174.47;5054617;28;20410;-85
2023/12/24 00:37:18;;;;;;;1.40;1.30;;;;;;;6.43;100.00;97157.69;5042006;28;20506;-84
2023/12/24 00:39:45;;;;;;;1.17;1.10;;;;;;;6.43;100.00;97164.75;5034434;28;20410;-85
2023/12/24 00:42:11;;;;;;;1.40;1.30;;;;;;;6.45;100.00;97160.09;5020369;28;20427;-85
2023/12/24 00:44:43;;;;;;;1.20;1.10;;;;;;;6.47;100.00;97164.06;5035269;28;20775;-84
2023/12/24 00:47:09;;;;;;;1.15;1.10;;;;;;;6.50;100.00;97155.72;5032368;28;20895;-84
2023/12/24 00:49:37;;;;;;;1.05;1.05;;;;;;;6.49;100.00;97154.13;5034044;28;20892;-85
2023/12/24 00:52:03;;;;;;;1.30;1.20;;;;;;;6.46;100.00;97151.97;5038899;28;20887;-85
2023/12/24 00:54:29;;;;;;;1.40;1.30;;;;;;;6.47;100.00;97160.63;5027300;28;20492;-85
2023/12/24 00:56:55;;;;;;;1.17;1.10;;;;;;;6.48;100.00;97160.41;5016733;28;20409;-85
2023/12/24 00:59:21;;;;;;;1.40;1.30;;;;;;;6.48;100.00;97155.16;5018919;28;20946;-85
2023/12/24 01:01:47;;;;;;;2.50;1.17;;;;;;;6.44;100.00;97161.91;5022570;28;20416;-84
2023/12/24 01:04:13;;;;;;;1.37;1.27;;;;;;;6.49;100.00;97151.50;5032782;28;20399;-86
2023/12/24 01:06:41;;;;;;;1.48;1.30;;;;;;;6.44;100.00;97155.84;5033866;28;20435;-83
2023/12/24 01:09:08;;;;;;;1.88;1.23;;;;;;;6.45;100.00;97152.19;5032837;28;20468;-84
2023/12/24 01:11:34;;;;;;;1.40;1.30;;;;;;;6.46;100.00;97165.13;5032523;28;20489;-83
2023/12/24 01:14:00;;;;;;;2.45;1.30;;;;;;;6.41;100.00;97167.63;5034366;28;20457;-84
2023/12/24 01:16:26;;;;;;;1.30;1.10;;;;;;;6.38;100.00;97169.91;5033182;28;20409;-83
2023/12/24 01:18:52;;;;;;;1.30;1.20;;;;;;;6.36;100.00;97166.72;5024172;28;20411;-86
2023/12/24 01:21:19;;;;;;;1.13;1.13;;;;;;;6.38;100.00;97175.16;5014199;28;20886;-85
2023/12/24 01:23:46;;;;;;;1.38;1.25;;;;;;;6.39;100.00;97169.66;5016388;28;20430;-85
2023/12/24 01:26:12;;;;;;;1.20;1.10;;;;;;;6.41;100.00;97182.59;5017944;28;20508;-87
2023/12/24 01:28:40;;;;;;;1.40;1.20;;;;;;;6.43;100.00;97170.81;5032042;28;20494;-84
2023/12/24 01:31:06;;;;;;;1.40;1.30;;;;;;;6.49;100.00;97177.78;5032434;28;20952;-84
2023/12/24 01:33:32;;;;;;;1.85;1.30;;;;;;;6.54;100.00;97179.75;5032094;28;20753;-84
2023/12/24 01:35:59;;;;;;;1.55;1.10;;;;;;;6.58;100.00;97180.88;5032658;28;20406;-84
2023/12/24 01:38:25;;;;;;;1.20;1.10;;;;;;;6.63;100.00;97186.22;5032309;28;20407;-84
2023/12/24 01:40:53;;;;;;;2.40;1.20;;;;;;;6.60;100.00;97190.13;5032617;28;20391;-84
2023/12/24 01:43:19;;;;;;;2.43;1.20;;;;;;;6.63;100.00;97165.19;5020049;28;20457;-84
2023/12/24 01:45:45;;;;;;;1.30;1.20;;;;;;;6.64;100.00;97153.63;5019025;28;20623;-85
2023/12/24 01:48:13;;;;;;;1.37;1.20;;;;;;;6.65;100.00;97151.81;5023030;28;20416;-84
2023/12/24 01:50:40;;;;;;;3.35;1.25;;;;;;;6.61;100.00;97144.38;5018769;28;20443;-83
2023/12/24 01:53:07;;;;;;;2.40;1.35;;;;;;;6.61;100.00;97130.44;5014640;28;20403;-84
2023/12/24 01:55:33;;;;;;;1.58;1.40;;;;;;;6.63;100.00;97145.97;5032835;28;20399;-85
2023/12/24 01:58:00;;;;;;;2.45;1.50;;;;;;;6.64;100.00;97137.06;5033160;28;20399;-84
2023/12/24 02:00:27;;;;;;;2.05;1.48;;;;;;;6.62;100.00;97155.69;5032539;28;20485;-84
2023/12/24 02:02:55;;;;;;;1.70;1.50;;;;;;;6.55;100.00;97153.19;5032617;28;20488;-83
2023/12/24 02:05:21;;;;;;;3.08;1.60;;;;;;;6.53;100.00;97142.13;5033071;28;20394;-84
2023/12/24 02:07:48;;;;;;;1.57;1.40;;;;;;;6.50;100.00;97153.09;5033559;28;20492;-85
2023/12/24 02:10:14;;;;;;;3.03;1.77;;;;;;;6.50;100.00;97153.09;5035015;28;20479;-84
2023/12/24 02:12:40;;;;;;;1.50;1.40;;;;;;;6.49;100.00;97127.81;5036411;28;20399;-85
2023/12/24 02:15:09;;;;;;;1.45;1.35;;;;;;;6.45;100.00;97131.16;5037744;28;20471;-85
2023/12/24 02:17:35;;;;;;;1.70;1.50;;;;;;;6.46;100.00;97124.88;5038215;28;20456;-86
2023/12/24 02:20:01;;;;;;;2.33;1.50;;;;;;;6.48;100.00;97122.78;5041010;28;20400;-86
2023/12/24 02:22:29;;;;;;;2.22;1.50;;;;;;;6.47;100.00;97148.28;5055353;28;20413;-86
2023/12/24 02:24:55;;;;;;;2.17;1.52;;;;;;;6.47;100.00;97121.19;5053814;28;20395;-85
2023/12/24 02:27:29;;;;;;;1.73;1.27;;;;;;;6.48;100.00;97125.41;5038252;28;20401;-86
2023/12/24 02:30:01;;;;;;;1.47;1.30;;;;;;;6.43;100.00;97128.75;5028204;28;20570;-85
2023/12/24 02:32:29;;;;;;;1.87;1.37;;;;;;;6.40;100.00;97131.03;5021478;28;20472;-84
2023/12/24 02:34:59;;;;;;;1.60;1.50;;;;;;;6.37;100.00;97116.53;5021451;28;20537;-85
2023/12/24 02:37:25;;;;;;;2.75;1.50;;;;;;;6.30;100.00;97142.16;5022439;28;20436;-86
2023/12/24 02:39:53;;;;;;;1.40;1.30;;;;;;;6.33;100.00;97135.59;5020783;28;20409;-85
2023/12/24 02:42:19;;;;;;;3.25;1.30;;;;;;;6.32;100.00;97142.69;5019699;28;20408;-85
2023/12/24 02:44:45;;;;;;;1.85;1.45;;;;;;;6.27;100.00;97150.47;5020820;28;20419;-86
2023/12/24 02:47:11;;;;;;;2.13;1.40;;;;;;;6.24;100.00;97153.56;5021497;28;20483;-84
2023/12/24 02:49:37;;;;;;;1.50;1.40;;;;;;;6.27;100.00;97149.69;5019784;28;20504;-85
2023/12/24 02:52:04;;;;;;;1.30;1.20;;;;;;;6.27;100.00;97141.78;5019267;28;20463;-85
2023/12/24 02:54:30;;;;;;;2.63;1.70;;;;;;;6.28;100.00;97153.91;5019703;28;20943;-84
2023/12/24 02:56:58;;;;;;;1.42;1.33;;;;;;;6.30;100.00;97167.63;5019079;28;20435;-85
2023/12/24 02:59:28;;;;;;;2.22;1.40;;;;;;;6.32;100.00;97173.44;5019243;28;20408;-85
2023/12/24 03:01:54;;;;;;;2.20;1.40;;;;;;;6.37;100.00;97155.97;5020248;28;20957;-85
2023/12/24 03:04:20;;;;;;;1.33;1.23;;;;;;;6.39;100.00;97169.66;5019159;28;20492;-86
2023/12/24 03:06:46;;;;;;;2.25;1.40;;;;;;;6.45;100.00;97168.78;5019824;28;20400;-85
2023/12/24 03:09:12;;;;;;;2.83;1.42;;;;;;;6.49;100.00;97161.22;5032768;28;20826;-84
2023/12/24 03:11:38;;;;;;;1.35;1.25;;;;;;;6.48;100.00;97147.25;5038040;28;20399;-86
2023/12/24 03:14:06;;;;;;;1.30;1.20;;;;;;;6.50;100.00;97158.34;5026434;28;20431;-85
2023/12/24 03:16:32;;;;;;;1.55;1.45;;;;;;;6.52;100.00;97163.38;5018992;28;20400;-85
2023/12/24 03:18:58;;;;;;;3.05;1.35;;;;;;;6.48;100.00;97164.84;5020990;28;20905;-85
2023/12/24 03:21:24;;;;;;;1.60;1.40;;;;;;;6.52;100.00;97164.19;5023940;28;20403;-86
2023/12/24 03:23:50;;;;;;;1.70;1.35;;;;;;;6.53;100.00;97165.00;5030187;28;20403;-84
2023/12/24 03:26:21;;;;;;;4.32;1.52;;;;;;;6.56;100.00;97149.53;5049271;28;20501;-84
2023/12/24 03:28:48;;;;;;;1.65;1.50;;;;;;;6.56;100.00;97162.69;5048977;28;20425;-85
2023/12/24 03:31:16;;;;;;;1.60;1.50;;;;;;;6.59;100.00;97146.47;5028083;28;20459;-84
2023/12/24 03:33:42;;;;;;;2.33;1.70;;;;;;;6.61;100.00;97154.88;5016932;28;20431;-84
2023/12/24 03:36:09;;;;;;;1.42;1.33;;;;;;;6.57;100.00;97153.78;5036454;28;20415;-84
2023/12/24 03:38:35;;;;;;;1.55;1.45;;;;;;;6.59;100.00;97154.34;5035661;28;20769;-84
2023/12/24 03:41:02;;;;;;;1.75;1.40;;;;;;;6.59;100.00;97141.19;5037045;28;20422;-83
2023/12/24 03:43:29;;;;;;;1.55;1.40;;;;;;;6.58;100.00;97154.56;5034956;28;20426;-84
2023/12/24 03:45:55;;;;;;;1.50;1.40;;;;;;;6.59;100.00;97135.94;5034893;28;20464;-84
2023/12/24 03:48:22;;;;;;;1.30;1.20;;;;;;;6.59;100.00;97143.03;5022632;28;20425;-85
2023/12/24 03:50:48;;;;;;;1.88;1.40;;;;;;;6.60;100.00;97150.69;5017217;28;20471;-84
2023/12/24 03:53:15;;;;;;;1.50;1.30;;;;;;;6.60;100.00;97144.63;5025891;28;20428;-85
2023/12/24 03:55:41;;;;;;;1.60;1.40;;;;;;;6.58;100.00;97144.06;5014938;28;20397;-83
2023/12/24 03:58:07;;;;;;;1.70;1.60;;;;;;;6.57;100.00;97130.09;5016725;28;20405;-83
2023/12/24 04:00:33;;;;;;;1.50;1.30;;;;;;;6.57;100.00;97130.09;5022165;28;20468;-84
2023/12/24 04:02:59;;;;;;;1.55;1.40;;;;;;;6.53;100.00;97122.91;5028610;28;20495;-84
2023/12/24 04:05:27;;;;;;;1.67;1.45;;;;;;;6.54;100.00;97121.91;5014431;28;20423;-84
2023/12/24 04:07:53;;;;;;;1.50;1.40;;;;;;;6.47;100.00;97113.31;5013893;28;20481;-84
2023/12/24 04:10:19;;;;;;;2.58;1.58;;;;;;;6.43;100.00;97110.34;5015348;28;20427;-84
2023/12/24 04:12:45;;;;;;;1.70;1.60;;;;;;;6.44;100.00;97119.84;5022535;28;20399;-86
2023/12/24 04:15:11;;;;;;;1.70;1.60;;;;;;;6.46;100.00;97130.13;5039833;28;20399;-85
2023/12/24 04:17:38;;;;;;;2.03;1.60;;;;;;;6.46;100.00;97135.38;5044076;28;20411;-85
2023/12/24 04:20:05;;;;;;;2.40;1.60;;;;;;;6.49;100.00;97127.81;5035235;28;20403;-84
2023/12/24 04:22:33;;;;;;;1.50;1.40;;;;;;;6.54;100.00;97116.63;5035237;28;20489;-84
2023/12/24 04:24:59;;;;;;;1.70;1.50;;;;;;;6.51;100.00;97127.59;5038706;28;20413;-85
2023/12/24 04:27:26;;;;;;;1.77;1.63;;;;;;;6.54;100.00;97127.16;5027270;28;20432;-86
2023/12/24 04:29:52;;;;;;;1.50;1.40;;;;;;;6.54;100.00;97111.38;5020010;28;20436;-85
2023/12/24 04:32:20;;;;;;;1.98;1.60;;;;;;;6.57;100.00;97110.88;5020694;28;20408;-86
2023/12/24 04:34:46;;;;;;;1.98;1.40;;;;;;;6.56;100.00;97112.72;5032922;28;20416;-86
2023/12/24 04:37:12;;;;;;;1.50;1.40;;;;;;;6.56;100.00;97117.19;5037753;28;20415;-86
2023/12/24 04:39:40;;;;;;;1.83;1.40;;;;;;;6.56;100.00;97117.97;5037769;28;20389;-85
2023/12/24 04:42:06;;;;;;;2.28;1.55;;;;;;;6.58;100.00;97110.66;5042963;28;20418;-85
2023/12/24 04:44:32;;;;;;;3.70;1.60;;;;;;;6.56;100.00;97090.88;5033972;28;20461;-85
2023/12/24 04:46:58;;;;;;;2.03;1.50;;;;;;;6.55;100.00;97097.97;5034306;28;20736;-84
2023/12/24 04:49:25;;;;;;;2.50;1.70;;;;;;;6.54;100.00;97090.34;5015477;28;20413;-85
2023/12/24 04:51:51;;;;;;;1.83;1.50;;;;;;;6.51;100.00;97091.59;5027344;28;20442;-85
2023/12/24 04:54:17;;;;;;;1.67;1.57;;;;;;;6.46;100.00;97086.25;5035657;28;20900;-85
2023/12/24 04:56:44;;;;;;;2.47;1.60;;;;;;;6.45;100.00;97083.84;5035456;28;20406;-83
2023/12/24 04:59:11;;;;;;;1.95;1.50;;;;;;;6.42;100.00;97068.50;5034037;28;20453;-84
2023/12/24 05:01:37;;;;;;;1.67;1.58;;;;;;;6.36;100.00;97078.13;5019792;28;20890;-86
2023/12/24 05:04:03;;;;;;;2.78;1.60;;;;;;;6.35;100.00;97076.53;5020417;28;20400;-85
2023/12/24 05:06:29;;;;;;;1.67;1.58;;;;;;;6.32;100.00;97073.56;5032636;28;20497;-86
2023/12/24 05:08:55;;;;;;;1.95;1.40;;;;;;;6.31;100.00;97049.13;5039331;28;20417;-84
2023/12/24 05:11:22;;;;;;;2.45;1.50;;;;;;;6.29;100.00;97032.78;5015512;28;20443;-85
2023/12/24 05:13:49;;;;;;;1.73;1.40;;;;;;;6.28;100.00;97025.91;5026129;28;20403;-85
2023/12/24 05:16:15;;;;;;;2.58;1.58;;;;;;;6.26;100.00;97027.97;5035383;28;20803;-85
2023/12/24 05:18:41;;;;;;;3.40;1.45;;;;;;;6.24;100.00;97030.03;5037140;28;20752;-85
2023/12/24 05:21:07;;;;;;;1.73;1.60;;;;;;;6.22;100.00;97030.28;5036799;28;20395;-84
2023/12/24 05:23:34;;;;;;;1.42;1.20;;;;;;;6.21;100.00;97023.41;5035935;28;20407;-85
2023/12/24 05:26:00;;;;;;;1.67;1.40;;;;;;;6.21;100.00;97023.41;5037742;28;20429;-84
2023/12/24 05:28:26;;;;;;;1.75;1.45;;;;;;;6.21;100.00;97030.50;5034852;28;20431;-85
2023/12/24 05:30:54;;;;;;;3.70;1.67;;;;;;;6.19;100.00;97024.69;5025039;28;20400;-85
2023/12/24 05:33:20;;;;;;;1.55;1.45;;;;;;;6.19;100.00;97033.34;5023876;28;20430;-85
2023/12/24 05:35:46;;;;;;;1.52;1.42;;;;;;;6.20;100.00;97021.03;5029199;28;20408;-84
2023/12/24 05:38:12;;;;;;;1.52;1.42;;;;;;;6.20;100.00;97039.41;5029960;28;20404;-85
2023/12/24 05:40:39;;;;;;;4.00;1.40;;;;;;;6.21;100.00;97054.97;5029389;28;20409;-85
2023/12/24 05:43:05;;;;;;;1.38;1.27;;;;;;;6.24;100.00;97043.16;5031834;28;20401;-86
2023/12/24 05:45:33;;;;;;;1.30;1.20;;;;;;;6.25;100.00;97046.59;5051767;28;20453;-85
2023/12/24 05:48:01;;;;;;;2.80;1.30;;;;;;;6.20;100.00;97034.97;5045178;28;20401;-84
2023/12/24 05:50:27;;;;;;;1.40;1.30;;;;;;;6.25;100.00;97039.50;5030279;28;20452;-85
2023/12/24 05:52:53;;;;;;;1.50;1.40;;;;;;;6.22;100.00;97056.56;5019150;28;20397;-84
2023/12/24 05:55:20;;;;;;;1.80;1.60;;;;;;;6.21;100.00;97051.53;5026898;28;20415;-86
2023/12/24 05:57:46;;;;;;;2.30;1.50;;;;;;;6.21;100.00;97038.38;5037761;28;20405;-84
2023/12/24 06:00:13;;;;;;;3.08;1.40;;;;;;;6.18;100.00;97036.22;5038223;28;20399;-84
2023/12/24 06:02:39;;;;;;;1.53;1.37;;;;;;;6.19;100.00;97045.69;5018121;28;20428;-85
2023/12/24 06:05:07;;;;;;;1.70;1.20;;;;;;;6.20;100.00;97045.47;5017383;28;20809;-84
2023/12/24 06:07:33;;;;;;;1.30;1.20;;;;;;;6.23;100.00;97049.47;5013863;28;20894;-84
2023/12/24 06:09:59;;;;;;;1.10;1.10;;;;;;;6.24;100.00;97045.03;5016969;28;20519;-84
2023/12/24 06:12:25;;;;;;;1.23;1.17;;;;;;;6.26;100.00;97050.81;5016144;28;20401;-84
2023/12/24 06:14:52;;;;;;;2.40;1.33;;;;;;;6.25;100.00;97036.88;5018155;28;20400;-85
2023/12/24 06:17:18;;;;;;;1.20;1.10;;;;;;;6.28;100.00;97022.50;5019174;28;20463;-84
2023/12/24 06:19:44;;;;;;;1.20;1.10;;;;;;;6.31;100.00;97022.84;5020286;28;20897;-86
2023/12/24 06:22:12;;;;;;;1.42;1.20;;;;;;;6.36;100.00;97008.97;5014935;28;20409;-85
2023/12/24 06:24:38;;;;;;;1.92;1.55;;;;;;;6.32;100.00;97002.56;5013078;28;20434;-85
2023/12/24 06:27:04;;;;;;;1.53;1.20;;;;;;;6.31;100.00;97003.63;5018331;28;20831;-85
2023/12/24 06:29:30;;;;;;;1.77;1.50;;;;;;;6.33;100.00;97004.19;5017025;28;20455;-85
2023/12/24 06:31:57;;;;;;;1.20;1.10;;;;;;;6.32;100.00;96986.81;5012613;28;20495;-85
2023/12/24 06:34:23;;;;;;;1.52;1.25;;;;;;;6.31;100.00;96987.88;5025065;28;20435;-85
2023/12/24 06:36:49;;;;;;;1.30;1.20;;;;;;;6.31;100.00;96998.38;5019541;28;20405;-85
2023/12/24 06:39:16;;;;;;;2.13;1.20;;;;;;;6.33;100.00;97002.34;5018270;28;20581;-86
2023/12/24 06:41:45;;;;;;;1.75;1.30;;;;;;;6.37;100.00;96989.56;5019492;28;20460;-85
2023/12/24 06:44:11;;;;;;;1.17;1.13;;;;;;;6.41;100.00;96977.53;5024900;28;20767;-86
2023/12/24 06:46:38;;;;;;;1.42;1.20;;;;;;;6.46;100.00;96986.31;5024947;28;20436;-86
2023/12/24 06:49:04;;;;;;;1.33;1.23;;;;;;;6.46;100.00;96988.97;5030097;28;20444;-85
2023/12/24 06:51:30;;;;;;;1.20;1.10;;;;;;;6.50;100.00;96976.94;5014553;28;20765;-82
2023/12/24 06:53:56;;;;;;;1.50;1.25;;;;;;;6.50;100.00;96969.03;5012818;28;20403;-85
2023/12/24 06:56:23;;;;;;;1.27;1.10;;;;;;;6.54;100.00;96980.66;5014749;28;20412;-84
2023/12/24 06:58:50;;;;;;;2.13;1.20;;;;;;;6.55;100.00;96982.28;5022111;28;20427;-82
2023/12/24 07:01:16;;;;;;;1.10;1.10;;;;;;;6.56;100.00;96983.88;5019214;28;20416;-86
2023/12/24 07:03:42;;;;;;;1.42;1.25;;;;;;;6.56;100.00;96988.31;5021772;28;20393;-86
2023/12/24 07:06:08;;;;;;;2.00;1.70;;;;;;;6.59;100.00;96972.09;5021665;28;20773;-87
2023/12/24 07:08:34;;;;;;;1.80;1.50;;;;;;;6.61;100.00;96980.56;5024997;28;20456;-86
2023/12/24 07:11:00;;;;;;;1.30;1.20;;;;;;;6.65;100.00;96983.50;5021511;28;20412;-86
2023/12/24 07:13:28;;;;;;;1.25;1.10;;;;;;;6.68;100.00;96989.09;5021267;28;20404;-85
2023/12/24 07:15:54;;;;;;;1.20;1.10;;;;;;;6.67;100.00;96982.25;5020987;28;20416;-87
2023/12/24 07:18:20;;;;;;;1.30;1.20;;;;;;;6.70;100.00;96979.13;5025571;28;20409;-82
2023/12/24 07:20:46;;;;;;;1.40;1.20;;;;;;;6.71;100.00;96974.66;5018125;28;20798;-81
2023/12/24 07:23:12;;;;;;;1.98;1.30;;;;;;;6.73;100.00;96962.88;5007967;28;20406;-84
2023/12/24 07:25:38;;;;;;;1.25;1.20;;;;;;;6.77;100.00;96971.06;5007701;28;20408;-83
2023/12/24 07:28:05;;;;;;;1.30;1.20;;;;;;;6.81;100.00;96974.84;5013897;28;20421;-84
2023/12/24 07:30:32;;;;;;;1.45;1.30;;;;;;;6.83;100.00;96970.16;5012912;28;20445;-83
2023/12/24 07:32:59;;;;;;;1.23;1.10;;;;;;;6.82;100.00;96973.81;5013745;28;20405;-82
2023/12/24 07:35:25;;;;;;;1.30;1.20;;;;;;;6.84;100.00;96979.66;5010808;28;20400;-82
2023/12/24 07:37:51;;;;;;;1.35;1.25;;;;;;;6.87;100.00;96969.44;5014740;28;20408;-82
2023/12/24 07:40:18;;;;;;;1.30;1.20;;;;;;;6.88;100.00;96971.03;5011466;28;20412;-82
2023/12/24 07:42:45;;;;;;;1.33;1.23;;;;;;;6.91;100.00;96972.41;5015128;28;20421;-82
2023/12/24 07:45:11;;;;;;;1.05;1.00;;;;;;;6.91;100.00;96948.72;5015149;28;20397;-83
2023/12/24 07:47:39;;;;;;;1.30;1.20;;;;;;;6.91;100.00;96962.69;5014466;28;20409;-83
2023/12/24 07:50:07;;;;;;;1.25;1.15;;;;;;;6.89;100.00;96962.09;5013172;28;20420;-84
2023/12/24 07:52:33;;;;;;;1.88;1.17;;;;;;;6.84;100.00;96945.44;5020148;28;20401;-82
2023/12/24 07:54:59;;;;;;;1.65;1.30;;;;;;;6.83;100.00;96935.97;5022903;28;20400;-83
2023/12/24 07:57:26;;;;;;;1.30;1.17;;;;;;;6.81;100.00;96948.53;5025149;28;20436;-84
2023/12/24 07:59:52;;;;;;;1.13;1.13;;;;;;;6.83;100.00;96960.44;5016403;28;20474;-83
2023/12/24 08:02:18;;;;;;;2.38;1.20;;;;;;;6.82;100.00;96950.94;5015272;28;20397;-83
2023/12/24 08:04:45;;;;;;;1.30;1.20;;;;;;;6.86;100.00;96977.56;5023504;28;20430;-83
2023/12/24 08:07:12;;;;;;;1.15;1.10;;;;;;;6.90;100.00;96979.50;5024249;28;20403;-85
2023/12/24 08:09:38;;;;;;;1.27;1.17;;;;;;;6.90;100.00;96984.75;5017172;28;20425;-83
2023/12/24 08:12:05;;;;;;;1.17;1.02;;;;;;;6.92;100.00;96993.19;5021556;28;20435;-84
2023/12/24 08:14:31;;;;;;;0.98;0.98;;;;;;;6.94;100.00;96990.31;5026544;28;20408;-83
2023/12/24 08:16:57;;;;;;;1.17;1.10;;;;;;;6.97;100.00;96987.22;5029027;28;20408;-82
2023/12/24 08:19:23;;;;;;;1.02;1.02;;;;;;;6.95;100.00;96995.34;5024491;28;20408;-85
2023/12/24 08:21:51;;;;;;;1.17;1.07;;;;;;;6.98;100.00;96992.25;5018887;28;20432;-83
2023/12/24 08:24:18;;;;;;;1.25;1.15;;;;;;;7.01;100.00;96990.97;5024513;28;20653;-83
2023/12/24 08:26:44;;;;;;;1.00;1.00;;;;;;;7.03;100.00;96978.38;5031421;28;20496;-84
2023/12/24 08:29:10;;;;;;;1.10;1.00;;;;;;;7.04;100.00;96966.81;5029236;28;20792;-84
2023/12/24 08:31:37;;;;;;;1.02;1.00;;;;;;;7.10;100.00;96978.22;5026732;28;20472;-84
2023/12/24 08:34:03;;;;;;;0.90;0.90;;;;;;;7.15;100.00;96967.75;5033367;28;20468;-85
2023/12/24 08:36:29;;;;;;;0.90;0.90;;;;;;;7.15;100.00;96949.34;5044025;28;20403;-81
2023/12/24 08:38:56;;;;;;;1.23;1.00;;;;;;;7.21;100.00;96925.53;5038660;28;20436;-81
2023/12/24 08:41:22;;;;;;;2.47;1.00;;;;;;;7.24;100.00;96940.81;5037366;28;20421;-83
2023/12/24 08:43:49;;;;;;;0.80;0.80;;;;;;;7.32;100.00;96940.41;5033307;28;20408;-82
2023/12/24 08:46:15;;;;;;;1.00;0.90;;;;;;;7.33;100.00;96923.59;5038121;28;20423;-81
2023/12/24 08:48:41;;;;;;;0.95;0.90;;;;;;;7.35;100.00;96910.97;5023690;28;20400;-82
2023/12/24 08:51:07;;;;;;;1.70;0.90;;;;;;;7.35;100.00;96916.25;5023092;28;20751;-84
2023/12/24 08:53:34;;;;;;;1.00;1.00;;;;;;;7.41;100.00;96930.28;5020389;28;20416;-85
2023/12/24 08:56:01;;;;;;;0.80;0.80;;;;;;;7.40;100.00;96923.41;5025748;28;20397;-84
2023/12/24 08:58:28;;;;;;;0.90;0.90;;;;;;;7.42;100.00;96913.44;5021185;28;20405;-85
2023/12/24 09:00:54;;;;;;;0.90;0.90;;;;;;;7.45;100.00;96915.56;5022332;28;20404;-85
2023/12/24 09:03:20;;;;;;;0.90;0.90;;;;;;;7.51;100.00;96913.81;5021758;28;20396;-83
2023/12/24 09:05:46;;;;;;;1.00;0.90;;;;;;;7.55;100.00;96914.91;5032565;28;20430;-82
2023/12/24 09:08:13;;;;;;;0.80;0.80;;;;;;;7.58;100.00;96932.88;5041186;28;20399;-82
2023/12/24 09:10:41;;;;;;;1.10;1.00;;;;;;;7.58;100.00;96938.94;5041578;28;20441;-83
2023/12/24 09:13:08;;;;;;;1.50;1.20;;;;;;;7.56;100.00;96946.28;5026981;28;20412;-84
2023/12/24 09:15:34;;;;;;;2.10;1.00;;;;;;;7.56;100.00;96953.38;5029998;28;20388;-86
2023/12/24 09:18:01;;;;;;;2.30;1.00;;;;;;;7.49;100.00;96947.50;5024630;28;20407;-84
2023/12/24 09:20:27;;;;;;;1.10;1.00;;;;;;;7.38;100.00;96955.25;5028111;28;20416;-84
2023/12/24 09:22:53;;;;;;;3.78;1.00;;;;;;;7.20;100.00;96986.28;5029918;28;20494;-83
2023/12/24 09:25:19;;;;;;;0.90;0.90;;;;;;;7.04;100.00;96985.25;5031113;28;20430;-85
2023/12/24 09:27:45;;;;;;;1.80;1.10;;;;;;;6.97;100.00;96998.56;5040097;28;20421;-82
2023/12/24 09:30:13;;;;;;;1.15;1.05;;;;;;;6.90;100.00;96999.75;5024290;28;20417;-84
2023/12/24 09:32:43;;;;;;;1.65;1.30;;;;;;;6.86;100.00;97001.22;5024482;28;20436;-82
2023/12/24 09:35:09;;;;;;;6.03;1.30;;;;;;;6.82;100.00;96989.59;5020131;28;20405;-82
2023/12/24 09:37:37;;;;;;;2.83;1.15;;;;;;;6.79;100.00;96975.06;5015971;28;20405;-81
2023/12/24 09:40:06;;;;;;;2.03;1.15;;;;;;;6.80;100.00;96996.91;5019759;28;20455;-80
2023/12/24 09:42:33;;;;;;;1.00;1.00;;;;;;;6.80;100.00;96992.47;5016953;28;20838;-81
2023/12/24 09:44:59;;;;;;;1.20;1.10;;;;;;;6.81;100.00;97004.59;5016172;28;20447;-83
2023/12/24 09:47:27;;;;;;;2.20;1.10;;;;;;;6.80;100.00;96978.50;5019751;28;20400;-86
2023/12/24 09:49:54;;;;;;;1.63;1.30;;;;;;;6.77;100.00;96992.91;5021834;28;20460;-84
2023/12/24 09:52:21;;;;;;;1.20;1.10;;;;;;;6.75;100.00;96988.94;5021410;28;20910;-82
2023/12/24 09:54:47;;;;;;;1.20;1.10;;;;;;;6.75;100.00;96981.06;5019783;28;20435;-86
2023/12/24 09:57:13;;;;;;;1.05;1.05;;;;;;;6.75;100.00;96978.44;5018773;28;20397;-83
2023/12/24 09:59:39;;;;;;;1.35;1.25;;;;;;;6.75;100.00;96978.44;5015466;28;20415;-84
2023/12/24 10:02:06;;;;;;;1.40;1.30;;;;;;;6.78;100.00;96988.47;5013354;28;20447;-80
2023/12/24 10:04:33;;;;;;;1.40;1.20;;;;;;;6.80;100.00;96986.41;5018535;28;20426;-83
2023/12/24 10:07:00;;;;;;;1.85;1.15;;;;;;;6.83;100.00;96986.75;5033525;28;20426;-81
2023/12/24 10:09:43;;;;;;;1.40;1.30;;;;;;;6.90;100.00;96986.59;5032378;28;20977;-83
2023/12/24 10:12:09;;;;;;;1.40;1.30;;;;;;;6.95;100.00;96991.94;5036008;28;20453;-79
2023/12/24 10:14:36;;;;;;;1.30;1.20;;;;;;;6.99;100.00;96991.19;5026200;28;20400;-80
2023/12/24 10:17:03;;;;;;;3.13;1.40;;;;;;;7.04;100.00;96990.50;5021618;28;20403;-81
2023/12/24 10:19:30;;;;;;;1.30;1.20;;;;;;;7.12;100.00;96978.78;5021020;28;20428;-81
2023/12/24 10:22:01;;;;;;;1.40;1.30;;;;;;;7.18;100.00;96977.84;5023145;28;20482;-83
2023/12/24 10:24:29;;;;;;;1.20;1.10;;;;;;;7.24;100.00;96977.66;5038026;28;20411;-82
2023/12/24 10:27:07;;;;;;;1.38;1.27;;;;;;;7.33;100.00;96970.16;5022078;28;20453;-82
2023/12/24 10:29:34;;;;;;;1.30;1.20;;;;;;;7.34;100.00;96959.41;5010857;28;20418;-82
2023/12/24 10:32:00;;;;;;;1.40;1.30;;;;;;;7.39;100.00;96959.47;5013906;28;20434;-82
2023/12/24 10:34:26;;;;;;;1.15;1.10;;;;;;;7.37;100.00;96953.63;5014826;28;20413;-82
2023/12/24 10:36:52;;;;;;;1.42;1.30;;;;;;;7.42;100.00;96962.66;5013779;28;20398;-82
2023/12/24 10:39:24;;;;;;;1.80;1.40;;;;;;;7.42;100.00;96970.56;5011891;28;20877;-80
2023/12/24 10:41:50;;;;;;;1.30;1.20;;;;;;;7.45;100.00;96962.16;5017715;28;20857;-84
2023/12/24 10:44:17;;;;;;;3.10;1.13;;;;;;;7.43;100.00;96956.38;5016785;28;20812;-82
2023/12/24 10:46:43;;;;;;;1.20;1.10;;;;;;;7.48;100.00;96959.88;5017224;28;20829;-82
2023/12/24 10:49:09;;;;;;;1.08;1.00;;;;;;;7.54;100.00;96964.16;5016001;28;20424;-83
2023/12/24 10:51:39;;;;;;;1.30;1.20;;;;;;;7.60;100.00;96970.28;5017222;28;20404;-82
2023/12/24 10:54:06;;;;;;;1.17;1.08;;;;;;;7.67;100.00;96963.00;5018456;28;20401;-83
2023/12/24 10:56:43;;;;;;;1.20;1.10;;;;;;;7.71;100.00;96970.22;5007081;28;20397;-80
2023/12/24 10:59:22;;;;;;;1.00;1.00;;;;;;;7.78;100.00;96972.66;5013975;28;20897;-80
2023/12/24 11:01:49;;;;;;;1.10;1.00;;;;;;;7.81;100.00;96972.19;5015115;28;20397;-82
2023/12/24 11:04:43;;;;;;;1.00;1.00;;;;;;;7.87;100.00;96965.94;5016430;28;20436;-82
2023/12/24 11:07:09;;;;;;;1.20;1.10;;;;;;;7.99;100.00;96965.81;5015291;28;20731;-81
2023/12/24 11:09:42;;;;;;;1.00;1.00;;;;;;;8.08;100.00;96964.34;5017301;28;20511;-84
2023/12/24 11:12:10;;;;;;;0.95;0.95;;;;;;;8.21;100.00;96960.53;5019949;28;20461;-83
2023/12/24 11:14:45;;;;;;;1.10;1.00;;;;;;;8.30;100.00;96945.88;5010061;28;20813;-81
2023/12/24 11:17:32;;;;;;;0.90;0.90;;;;;;;8.31;100.00;96948.31;5015285;28;20874;-79
2023/12/24 11:20:37;;;;;;;1.00;1.00;;;;;;;8.34;100.00;96913.56;5023900;28;20797;-78
2023/12/24 11:23:14;;;;;;;1.13;1.02;;;;;;;8.29;100.00;96915.28;5021448;28;20433;-78
2023/12/24 11:25:42;;;;;;;1.00;1.00;;;;;;;8.38;100.00;96927.81;5022734;28;20408;-78
2023/12/24 11:28:10;;;;;;;1.20;1.00;;;;;;;8.37;100.00;96922.78;5022460;28;20412;-77
2023/12/24 11:31:03;;;;;;;1.20;1.10;;;;;;;8.48;100.00;96932.41;5017426;28;20510;-78
2023/12/24 11:33:51;;;;;;;0.95;0.95;;;;;;;8.62;100.00;96923.06;5015569;28;20397;-77